createdAt,value
2023-05-21T00:01:42.127Z,100241.10
2023-05-21T00:04:09.099Z,100238.32
2023-05-21T00:06:42.005Z,100234.39
2023-05-21T00:09:10.419Z,100236.20
2023-05-21T00:11:38.990Z,100233.27
2023-05-21T00:14:05.916Z,100234.45
2023-05-21T00:16:33.299Z,100229.41
2023-05-21T00:19:02.214Z,100227.70
2023-05-21T00:21:31.276Z,100228.41
2023-05-21T00:23:58.300Z,100229.04
2023-05-21T00:26:25.802Z,100226.84
2023-05-21T00:28:53.547Z,100226.85
2023-05-21T00:31:21.265Z,100223.32
2023-05-21T00:33:48.285Z,100221.23
2023-05-21T00:36:16.190Z,100218.91
2023-05-21T00:38:43.685Z,100216.35
2023-05-21T00:41:10.621Z,100218.45
2023-05-21T00:43:39.896Z,100217.83
2023-05-21T00:46:08.323Z,100215.51
2023-05-21T00:48:35.226Z,100216.11
2023-05-21T00:51:02.028Z,100210.98
2023-05-21T00:53:29.643Z,100209.23
2023-05-21T00:56:02.473Z,100209.30
2023-05-21T00:58:35.864Z,100205.40
2023-05-21T01:01:03.486Z,100202.96
2023-05-21T01:03:38.033Z,100201.98
2023-05-21T01:06:05.529Z,100200.70
2023-05-21T01:08:34.413Z,100202.48
2023-05-21T01:11:07.154Z,100202.86
2023-05-21T01:13:36.512Z,100203.27
2023-05-21T01:16:05.997Z,100199.63
2023-05-21T01:18:34.723Z,100195.57
2023-05-21T01:21:01.972Z,100195.20
2023-05-21T01:23:28.952Z,100194.83
2023-05-21T01:25:56.653Z,100192.65
2023-05-21T01:28:24.258Z,100192.89
2023-05-21T01:30:51.095Z,100188.52
2023-05-21T01:33:26.419Z,100188.41
2023-05-21T01:36:03.706Z,100186.90
2023-05-21T01:38:36.515Z,100188.95
2023-05-21T01:41:07.845Z,100190.95
2023-05-21T01:43:43.035Z,100195.12
2023-05-21T01:46:10.733Z,100192.42
2023-05-21T01:48:38.130Z,100195.67
2023-05-21T01:51:10.506Z,100198.92
2023-05-21T01:53:40.595Z,100201.24
2023-05-21T01:56:07.647Z,100201.33
2023-05-21T01:58:35.784Z,100194.88
2023-05-21T02:01:04.048Z,100196.37
2023-05-21T02:03:31.323Z,100199.92
2023-05-21T02:05:58.593Z,100199.77
2023-05-21T02:08:26.913Z,100200.40
2023-05-21T02:10:55.050Z,100196.30
2023-05-21T02:13:24.971Z,100195.51
2023-05-21T02:15:54.182Z,100195.41
2023-05-21T02:18:21.556Z,100197.80
2023-05-21T02:20:48.581Z,100202.30
2023-05-21T02:23:15.595Z,100201.78
2023-05-21T02:25:43.789Z,100201.02
2023-05-21T02:28:12.274Z,100207.43
2023-05-21T02:30:39.836Z,100208.42
2023-05-21T02:33:08.655Z,100208.54
2023-05-21T02:35:36.099Z,100214.08
2023-05-21T02:38:03.349Z,100217.09
2023-05-21T02:40:32.800Z,100216.02
2023-05-21T02:43:00.118Z,100219.06
2023-05-21T02:45:28.189Z,100217.78
2023-05-21T02:47:55.643Z,100224.38
2023-05-21T02:50:22.884Z,100227.12
2023-05-21T02:52:55.860Z,100225.14
2023-05-21T02:55:22.867Z,100221.98
2023-05-21T02:57:51.015Z,100223.53
2023-05-21T03:00:17.969Z,100221.52
2023-05-21T03:02:45.563Z,100225.45
2023-05-21T03:05:12.886Z,100223.09
2023-05-21T03:07:42.107Z,100224.05
2023-05-21T03:10:10.275Z,100221.75
2023-05-21T03:12:38.781Z,100217.46
2023-05-21T03:15:06.131Z,100219.85
2023-05-21T03:17:39.059Z,100222.52
2023-05-21T03:20:08.297Z,100226.52
2023-05-21T03:22:37.062Z,100224.77
2023-05-21T03:25:04.330Z,100225.58
2023-05-21T03:27:31.578Z,100221.64
2023-05-21T03:29:58.847Z,100218.61
2023-05-21T03:32:26.389Z,100218.20
2023-05-21T03:34:53.946Z,100224.85
2023-05-21T03:37:20.939Z,100223.02
2023-05-21T03:39:47.989Z,100220.67
2023-05-21T03:42:20.054Z,100221.98
2023-05-21T03:44:52.920Z,100218.59
2023-05-21T03:47:52.574Z,100223.67
2023-05-21T03:50:19.843Z,100226.14
2023-05-21T03:52:47.194Z,100225.53
2023-05-21T03:55:14.151Z,100228.27
2023-05-21T03:57:47.629Z,100231.54
2023-05-21T04:00:20.112Z,100227.30
2023-05-21T04:02:48.091Z,100226.49
2023-05-21T04:05:16.489Z,100226.74
2023-05-21T04:07:49.810Z,100223.44
2023-05-21T04:10:17.002Z,100219.27
2023-05-21T04:12:44.094Z,100223.02
2023-05-21T04:15:12.064Z,100226.80
2023-05-21T04:17:40.109Z,100225.90
2023-05-21T04:20:07.860Z,100230.64
2023-05-21T04:22:36.238Z,100230.70
2023-05-21T04:25:03.317Z,100234.25
2023-05-21T04:27:36.353Z,100240.45
2023-05-21T04:30:03.837Z,100243.52
2023-05-21T04:32:33.015Z,100245.09
2023-05-21T04:35:01.591Z,100250.09
2023-05-21T04:37:29.580Z,100253.56
2023-05-21T04:39:57.865Z,100256.66
2023-05-21T04:42:32.414Z,100252.02
2023-05-21T04:45:00.304Z,100254.12
2023-05-21T04:47:29.763Z,100252.88
2023-05-21T04:49:56.652Z,100253.86
2023-05-21T04:52:24.567Z,100256.29
2023-05-21T04:54:53.547Z,100255.90
2023-05-21T04:57:21.392Z,100253.60
2023-05-21T04:59:49.021Z,100251.40
2023-05-21T05:02:16.194Z,100250.55
2023-05-21T05:04:43.760Z,100249.73
2023-05-21T05:07:11.798Z,100249.27
2023-05-21T05:09:39.232Z,100246.67
2023-05-21T05:12:06.773Z,100248.23
2023-05-21T05:14:34.121Z,100249.23
2023-05-21T05:17:01.157Z,100247.46
2023-05-21T05:19:29.083Z,100248.19
2023-05-21T05:21:56.391Z,100244.77
2023-05-21T05:24:24.547Z,100245.83
2023-05-21T05:26:57.119Z,100245.77
2023-05-21T05:29:25.040Z,100245.02
2023-05-21T05:31:57.951Z,100247.88
2023-05-21T05:34:24.836Z,100248.55
2023-05-21T05:36:52.670Z,100248.56
2023-05-21T05:39:19.687Z,100251.76
2023-05-21T05:41:47.149Z,100246.36
2023-05-21T05:44:14.212Z,100248.40
2023-05-21T05:46:43.484Z,100253.16
2023-05-21T05:49:11.146Z,100252.70
2023-05-21T05:51:40.556Z,100248.89
2023-05-21T05:54:08.010Z,100245.73
2023-05-21T05:56:36.089Z,100243.14
2023-05-21T05:59:04.550Z,100242.23
2023-05-21T06:01:34.907Z,100244.65
2023-05-21T06:04:01.820Z,100240.48
2023-05-21T06:06:36.298Z,100240.67
2023-05-21T06:09:03.441Z,100243.46
2023-05-21T06:11:30.712Z,100247.46
2023-05-21T06:14:01.108Z,100242.96
2023-05-21T06:16:30.855Z,100249.02
2023-05-21T06:18:58.119Z,100246.17
2023-05-21T06:21:25.377Z,100248.27
2023-05-21T06:23:53.067Z,100246.60
2023-05-21T06:26:21.430Z,100245.64
2023-05-21T06:28:49.365Z,100246.87
2023-05-21T06:31:16.448Z,100245.46
2023-05-21T06:33:43.700Z,100245.25
2023-05-21T06:36:11.158Z,100241.60
2023-05-21T06:38:39.484Z,100240.48
2023-05-21T06:41:06.430Z,100238.30
2023-05-21T06:43:47.924Z,100240.39
2023-05-21T06:46:38.284Z,100244.17
2023-05-21T06:49:07.847Z,100237.98
2023-05-21T06:51:35.473Z,100239.00
2023-05-21T06:54:03.607Z,100242.10
2023-05-21T06:56:36.188Z,100239.33
2023-05-21T06:59:03.204Z,100242.73
2023-05-21T07:01:30.462Z,100240.44
2023-05-21T07:03:57.437Z,100240.53
2023-05-21T07:06:25.891Z,100237.51
2023-05-21T07:08:53.314Z,100235.31
2023-05-21T07:11:21.180Z,100234.57
2023-05-21T07:13:48.328Z,100233.68
2023-05-21T07:16:17.279Z,100236.77
2023-05-21T07:18:44.504Z,100233.09
2023-05-21T07:21:12.419Z,100230.17
2023-05-21T07:23:39.889Z,100230.46
2023-05-21T07:26:19.450Z,100228.49
2023-05-21T07:28:46.421Z,100228.52
2023-05-21T07:31:13.435Z,100231.08
2023-05-21T07:33:44.416Z,100227.96
2023-05-21T07:36:11.697Z,100222.73
2023-05-21T07:38:43.762Z,100225.63
2023-05-21T07:41:17.799Z,100221.79
2023-05-21T07:43:46.435Z,100218.27
2023-05-21T07:46:14.265Z,100217.09
2023-05-21T07:48:43.721Z,100214.64
2023-05-21T07:51:11.164Z,100214.09
2023-05-21T07:53:38.319Z,100210.67
2023-05-21T07:56:07.560Z,100210.91
2023-05-21T07:58:35.658Z,100203.52
2023-05-21T08:01:02.743Z,100200.76
2023-05-21T08:03:30.545Z,100201.25
2023-05-21T08:05:57.971Z,100197.38
2023-05-21T08:08:25.512Z,100201.11
2023-05-21T08:10:54.080Z,100200.34
2023-05-21T08:13:21.480Z,100197.83
2023-05-21T08:15:50.562Z,100199.80
2023-05-21T08:18:20.048Z,100198.93
2023-05-21T08:20:47.822Z,100203.08
2023-05-21T08:23:15.909Z,100202.34
2023-05-21T08:25:48.436Z,100203.80
2023-05-21T08:28:15.567Z,100205.69
2023-05-21T08:30:42.532Z,100206.41
2023-05-21T08:33:09.617Z,100206.45
2023-05-21T08:35:36.703Z,100208.09
2023-05-21T08:38:20.261Z,100211.91
2023-05-21T08:41:03.837Z,100213.05
2023-05-21T08:43:30.889Z,100214.55
2023-05-21T08:46:00.967Z,100215.95
2023-05-21T08:48:37.911Z,100214.41
2023-05-21T08:51:05.971Z,100214.27
2023-05-21T08:53:36.634Z,100213.55
2023-05-21T08:56:14.325Z,100208.31
2023-05-21T08:58:45.889Z,100208.73
2023-05-21T09:01:14.028Z,100210.52
2023-05-21T09:03:43.200Z,100207.58
2023-05-21T09:06:15.233Z,100210.58
2023-05-21T09:08:45.881Z,100207.35
2023-05-21T09:11:21.935Z,100207.13
2023-05-21T09:13:53.813Z,100204.64
2023-05-21T09:16:28.061Z,100200.32
2023-05-21T09:18:55.242Z,100190.20
2023-05-21T09:21:30.880Z,100188.26
2023-05-21T09:24:06.265Z,100181.29
2023-05-21T09:26:33.668Z,100181.63
2023-05-21T09:29:03.195Z,100179.84
2023-05-21T09:31:32.389Z,100181.55
2023-05-21T09:34:00.771Z,100178.52
2023-05-21T09:36:28.953Z,100172.11
2023-05-21T09:38:57.862Z,100169.38
2023-05-21T09:41:35.233Z,100162.95
2023-05-21T09:44:07.678Z,100161.50
2023-05-21T09:46:39.919Z,100161.86
2023-05-21T09:49:07.705Z,100157.52
2023-05-21T09:51:37.964Z,100153.94
2023-05-21T09:54:04.858Z,100153.17
2023-05-21T09:56:31.932Z,100149.92
2023-05-21T09:59:00.877Z,100147.59
2023-05-21T10:01:30.982Z,100143.44
2023-05-21T10:03:59.311Z,100143.17
2023-05-21T10:06:27.475Z,100136.63
2023-05-21T10:08:58.775Z,100135.85
2023-05-21T10:11:28.327Z,100130.62
2023-05-21T10:13:58.349Z,100131.27
2023-05-21T10:16:25.777Z,100122.09
2023-05-21T10:18:53.766Z,100126.75
2023-05-21T10:21:27.207Z,100124.63
2023-05-21T10:23:56.837Z,100124.40
2023-05-21T10:26:24.128Z,100124.16
2023-05-21T10:28:51.650Z,100117.17
2023-05-21T10:31:23.874Z,100116.52
2023-05-21T10:33:52.955Z,100117.09
2023-05-21T10:36:21.283Z,100112.13
2023-05-21T10:38:48.182Z,100107.00
2023-05-21T10:41:18.630Z,100102.13
2023-05-21T10:43:47.654Z,100098.36
2023-05-21T10:46:46.014Z,100098.30
2023-05-21T10:49:16.011Z,100090.89
2023-05-21T10:51:53.733Z,100089.94
2023-05-21T10:54:53.834Z,100094.05
2023-05-21T10:58:06.243Z,100095.70
2023-05-21T11:00:33.214Z,100098.80
2023-05-21T11:03:01.323Z,100104.88
2023-05-21T11:05:50.661Z,100107.38
2023-05-21T11:08:22.503Z,100109.48
2023-05-21T11:10:57.564Z,100107.71
2023-05-21T11:13:50.870Z,100108.48
2023-05-21T11:16:23.013Z,100106.46
2023-05-21T11:18:50.036Z,100102.58
2023-05-21T11:21:17.825Z,100103.26
2023-05-21T11:23:50.591Z,100093.86
2023-05-21T11:26:22.232Z,100086.01
2023-05-21T11:29:04.243Z,100084.07
2023-05-21T11:31:39.047Z,100082.76
2023-05-21T11:34:28.195Z,100082.70
2023-05-21T11:37:22.872Z,100091.82
2023-05-21T11:39:50.218Z,100103.10
2023-05-21T11:42:31.232Z,100110.03
2023-05-21T11:44:59.465Z,100117.23
2023-05-21T11:47:27.034Z,100125.54
2023-05-21T11:49:55.396Z,100136.11
2023-05-21T11:52:22.531Z,100151.18
2023-05-21T11:54:56.846Z,100173.55
2023-05-21T11:57:28.709Z,100180.02
2023-05-21T11:59:55.782Z,100179.30
2023-05-21T12:02:23.169Z,100190.48
2023-05-21T12:04:50.363Z,100191.44
2023-05-21T12:07:18.574Z,100192.27
2023-05-21T12:09:49.714Z,100193.80
2023-05-21T12:12:18.150Z,100190.00
2023-05-21T12:14:53.130Z,100191.28
2023-05-21T12:17:23.693Z,100188.73
2023-05-21T12:19:54.610Z,100188.72
2023-05-21T12:22:23.951Z,100183.60
2023-05-21T12:24:50.902Z,100185.98
2023-05-21T12:27:17.770Z,100186.27
2023-05-21T12:29:46.945Z,100186.15
2023-05-21T12:32:14.650Z,100181.31
2023-05-21T12:34:52.869Z,100182.00
2023-05-21T12:37:27.331Z,100177.53
2023-05-21T12:39:55.119Z,100174.77
2023-05-21T12:42:26.698Z,100180.02
2023-05-21T12:44:53.838Z,100188.23
2023-05-21T12:47:26.054Z,100177.97
2023-05-21T12:49:59.826Z,100175.98
2023-05-21T12:52:27.162Z,100183.23
2023-05-21T12:54:55.962Z,100182.36
2023-05-21T12:57:43.365Z,100191.52
2023-05-21T13:00:11.149Z,100200.16
2023-05-21T13:02:40.553Z,100199.36
2023-05-21T13:05:09.277Z,100198.10
2023-05-21T13:07:38.670Z,100208.92
2023-05-21T13:10:06.018Z,100217.16
2023-05-21T13:12:33.415Z,100227.83
2023-05-21T13:15:07.513Z,100234.73
2023-05-21T13:17:34.432Z,100250.63
2023-05-21T13:20:20.818Z,100261.83
2023-05-21T13:22:49.452Z,100261.02
2023-05-21T13:25:21.868Z,100266.13
2023-05-21T13:27:49.393Z,100277.75
2023-05-21T13:30:16.396Z,100280.91
2023-05-21T13:32:43.792Z,100287.80
2023-05-21T13:35:11.570Z,100290.98
2023-05-21T13:37:39.691Z,100283.26
2023-05-21T13:40:10.320Z,100285.49
2023-05-21T13:42:38.841Z,100281.59
2023-05-21T13:45:12.777Z,100282.85
2023-05-21T13:47:41.167Z,100278.90
2023-05-21T13:50:08.833Z,100274.14
2023-05-21T13:52:36.351Z,100268.17
2023-05-21T13:55:03.524Z,100267.52
2023-05-21T13:57:31.152Z,100271.23
2023-05-21T13:59:58.704Z,100278.16
2023-05-21T14:02:31.576Z,100268.13
2023-05-21T14:04:59.286Z,100257.12
2023-05-21T14:07:26.429Z,100241.99
2023-05-21T14:09:53.498Z,100223.86
2023-05-21T14:12:21.297Z,100200.20
2023-05-21T14:14:49.275Z,100182.06
2023-05-21T14:17:16.112Z,100179.30
2023-05-21T14:19:43.133Z,100175.94
2023-05-21T14:22:09.921Z,100177.46
2023-05-21T14:24:42.010Z,100186.20
2023-05-21T14:27:08.864Z,100188.89
2023-05-21T14:29:35.804Z,100193.99
2023-05-21T14:32:02.762Z,100192.56
2023-05-21T14:34:30.393Z,100200.45
2023-05-21T14:36:57.277Z,100217.21
2023-05-21T14:39:24.312Z,100233.23
2023-05-21T14:41:51.317Z,100244.63
2023-05-21T14:44:19.265Z,100254.17
2023-05-21T14:46:46.679Z,100262.23
2023-05-21T14:49:13.982Z,100267.46
2023-05-21T14:51:43.036Z,100267.21
2023-05-21T14:54:15.110Z,100267.42
2023-05-21T14:56:42.347Z,100273.91
2023-05-21T14:59:12.160Z,100284.38
2023-05-21T15:01:39.448Z,100282.48
2023-05-21T15:04:07.342Z,100281.58
2023-05-21T15:06:34.565Z,100276.39
2023-05-21T15:09:06.619Z,100270.89
2023-05-21T15:11:33.893Z,100264.75
2023-05-21T15:14:01.002Z,100253.71
2023-05-21T15:16:28.725Z,100247.65
2023-05-21T15:18:56.096Z,100243.34
2023-05-21T15:21:25.740Z,100243.93
2023-05-21T15:23:54.334Z,100236.91
2023-05-21T15:26:22.325Z,100234.58
2023-05-21T15:28:49.273Z,100227.05
2023-05-21T15:31:16.216Z,100225.00
2023-05-21T15:33:43.288Z,100225.80
2023-05-21T15:36:15.686Z,100227.90
2023-05-21T15:38:42.533Z,100232.63
2023-05-21T15:41:09.861Z,100232.33
2023-05-21T15:43:37.640Z,100232.27
2023-05-21T15:46:06.207Z,100239.96
2023-05-21T15:48:34.417Z,100236.79
2023-05-21T15:51:01.343Z,100236.83
2023-05-21T15:53:28.171Z,100247.29
2023-05-21T15:55:56.534Z,100252.08
2023-05-21T15:58:23.627Z,100252.85
2023-05-21T16:00:50.690Z,100255.98
2023-05-21T16:03:17.716Z,100256.33
2023-05-21T16:05:44.684Z,100250.71
2023-05-21T16:08:11.719Z,100246.35
2023-05-21T16:10:40.000Z,100252.05
2023-05-21T16:13:07.997Z,100252.41
2023-05-21T16:15:35.178Z,100249.09
2023-05-21T16:18:02.520Z,100250.38
2023-05-21T16:20:30.527Z,100251.63
2023-05-21T16:22:57.940Z,100251.52
2023-05-21T16:25:25.213Z,100253.00
2023-05-21T16:27:52.214Z,100251.80
2023-05-21T16:30:19.402Z,100259.26
2023-05-21T16:32:46.842Z,100261.44
2023-05-21T16:35:13.903Z,100257.62
2023-05-21T16:37:41.040Z,100254.74
2023-05-21T16:40:08.833Z,100246.80
2023-05-21T16:42:36.606Z,100247.20
2023-05-21T16:45:03.754Z,100238.94
2023-05-21T16:47:31.146Z,100236.70
2023-05-21T16:49:58.239Z,100233.14
2023-05-21T16:52:25.945Z,100231.77
2023-05-21T16:54:52.764Z,100230.32
2023-05-21T16:57:19.728Z,100229.57
2023-05-21T16:59:46.665Z,100238.84
2023-05-21T17:02:13.825Z,100235.48
2023-05-21T17:04:40.868Z,100236.58
2023-05-21T17:07:08.374Z,100234.13
2023-05-21T17:09:35.476Z,100230.14
2023-05-21T17:12:03.199Z,100233.02
2023-05-21T17:14:34.287Z,100232.58
2023-05-21T17:17:02.109Z,100237.52
2023-05-21T17:19:34.416Z,100228.64
2023-05-21T17:22:01.686Z,100220.48
2023-05-21T17:24:28.833Z,100220.08
2023-05-21T17:26:55.955Z,100215.48
2023-05-21T17:29:28.182Z,100211.14
2023-05-21T17:31:55.379Z,100206.79
2023-05-21T17:34:26.058Z,100199.45
2023-05-21T17:36:53.449Z,100194.83
2023-05-21T17:39:20.271Z,100186.67
2023-05-21T17:41:52.496Z,100183.41
2023-05-21T17:44:19.589Z,100177.17
2023-05-21T17:46:50.664Z,100170.39
2023-05-21T17:49:17.950Z,100160.50
2023-05-21T17:51:45.027Z,100149.67
2023-05-21T17:54:17.134Z,100146.27
2023-05-21T17:56:46.215Z,100148.67
2023-05-21T17:59:13.579Z,100155.20
2023-05-21T18:01:40.736Z,100166.10
2023-05-21T18:04:11.681Z,100157.73
2023-05-21T18:06:39.120Z,100154.32
2023-05-21T18:09:13.846Z,100159.81
2023-05-21T18:11:43.047Z,100167.23
2023-05-21T18:14:10.040Z,100168.01
2023-05-21T18:16:37.056Z,100165.13
2023-05-21T18:19:09.205Z,100166.38
2023-05-21T18:21:36.811Z,100163.38
2023-05-21T18:24:03.976Z,100161.48
2023-05-21T18:26:31.118Z,100159.63
2023-05-21T18:28:58.107Z,100159.81
2023-05-21T18:31:25.457Z,100153.91
2023-05-21T18:33:52.390Z,100151.98
2023-05-21T18:36:19.427Z,100149.92
2023-05-21T18:38:47.798Z,100143.09
2023-05-21T18:41:14.749Z,100138.45
2023-05-21T18:43:41.798Z,100137.30
2023-05-21T18:46:08.805Z,100132.35
2023-05-21T18:48:36.653Z,100130.14
2023-05-21T18:51:03.544Z,100122.91
2023-05-21T18:53:35.665Z,100122.35
2023-05-21T18:56:04.288Z,100118.08
2023-05-21T18:58:32.550Z,100112.98
2023-05-21T19:00:59.580Z,100116.31
2023-05-21T19:03:27.351Z,100131.05
2023-05-21T19:05:54.524Z,100138.02
2023-05-21T19:08:22.585Z,100142.84
2023-05-21T19:10:49.863Z,100151.10
2023-05-21T19:13:16.752Z,100151.75
2023-05-21T19:15:46.428Z,100156.55
2023-05-21T19:18:13.852Z,100156.65
2023-05-21T19:20:40.653Z,100154.92
2023-05-21T19:23:07.876Z,100157.14
2023-05-21T19:25:35.234Z,100157.02
2023-05-21T19:28:02.162Z,100153.41
2023-05-21T19:30:36.123Z,100150.52
2023-05-21T19:33:03.673Z,100147.45
2023-05-21T19:35:30.627Z,100152.11
2023-05-21T19:38:05.765Z,100145.77
2023-05-21T19:40:33.040Z,100142.95
2023-05-21T19:42:59.965Z,100145.29
2023-05-21T19:45:27.001Z,100150.83
2023-05-21T19:47:54.040Z,100146.86
2023-05-21T19:50:21.564Z,100143.84
2023-05-21T19:52:48.562Z,100146.46
2023-05-21T19:55:19.610Z,100151.95
2023-05-21T19:57:46.536Z,100163.30
2023-05-21T20:00:14.377Z,100163.29
2023-05-21T20:02:43.458Z,100166.63
2023-05-21T20:05:15.774Z,100175.83
2023-05-21T20:07:43.379Z,100192.05
2023-05-21T20:10:10.348Z,100207.80
2023-05-21T20:12:38.674Z,100223.92
2023-05-21T20:15:06.499Z,100205.40
2023-05-21T20:17:33.751Z,100184.16
2023-05-21T20:20:00.951Z,100192.53
2023-05-21T20:22:27.845Z,100201.63
2023-05-21T20:24:55.392Z,100196.77
2023-05-21T20:27:22.696Z,100182.69
2023-05-21T20:29:49.688Z,100182.27
2023-05-21T20:32:17.386Z,100173.14
2023-05-21T20:34:58.518Z,100175.79
2023-05-21T20:37:31.901Z,100170.15
2023-05-21T20:39:59.412Z,100156.06
2023-05-21T20:42:28.000Z,100149.50
2023-05-21T20:44:54.988Z,100149.73
2023-05-21T20:47:23.310Z,100160.54
2023-05-21T20:49:54.418Z,100153.33
2023-05-21T20:52:31.532Z,100149.52
2023-05-21T20:54:59.046Z,100153.34
2023-05-21T20:57:27.437Z,100149.01
2023-05-21T20:59:54.568Z,100144.66
2023-05-21T21:02:22.485Z,100147.84
2023-05-21T21:04:49.955Z,100136.75
2023-05-21T21:07:21.987Z,100138.08
2023-05-21T21:09:48.900Z,100136.23
2023-05-21T21:12:25.864Z,100138.23
2023-05-21T21:14:54.832Z,100131.80
2023-05-21T21:17:22.226Z,100131.27
2023-05-21T21:19:49.167Z,100128.98
2023-05-21T21:22:22.797Z,100126.67
2023-05-21T21:24:50.434Z,100122.49
2023-05-21T21:27:17.840Z,100121.73
2023-05-21T21:29:45.969Z,100117.64
2023-05-21T21:32:12.930Z,100115.91
2023-05-21T21:34:40.555Z,100116.42
2023-05-21T21:37:07.634Z,100121.51
2023-05-21T21:39:34.949Z,100114.61
2023-05-21T21:42:02.081Z,100116.26
2023-05-21T21:44:29.473Z,100121.59
2023-05-21T21:46:56.410Z,100126.05
2023-05-21T21:49:23.767Z,100128.45
2023-05-21T21:51:51.394Z,100127.13
2023-05-21T21:54:18.412Z,100129.60
2023-05-21T21:56:45.422Z,100124.82
2023-05-21T21:59:12.337Z,100121.83
2023-05-21T22:01:39.519Z,100119.12
2023-05-21T22:04:06.704Z,100119.91
2023-05-21T22:06:34.731Z,100117.05
2023-05-21T22:09:01.756Z,100116.90
2023-05-21T22:11:28.858Z,100110.95
2023-05-21T22:13:56.885Z,100110.08
2023-05-21T22:16:24.318Z,100109.69
2023-05-21T22:18:53.665Z,100103.85
2023-05-21T22:21:20.969Z,100103.61
2023-05-21T22:23:48.325Z,100099.34
2023-05-21T22:26:21.564Z,100097.70
2023-05-21T22:28:49.100Z,100101.39
2023-05-21T22:31:16.032Z,100100.09
2023-05-21T22:33:43.018Z,100101.94
2023-05-21T22:36:09.916Z,100100.73
2023-05-21T22:38:37.913Z,100100.52
2023-05-21T22:41:10.592Z,100097.73
2023-05-21T22:43:37.719Z,100096.21
2023-05-21T22:46:04.774Z,100090.77
2023-05-21T22:48:33.550Z,100091.38
2023-05-21T22:51:01.174Z,100089.23
2023-05-21T22:53:28.584Z,100086.45
2023-05-21T22:55:55.532Z,100088.17
2023-05-21T22:58:22.553Z,100082.43
2023-05-21T23:00:49.424Z,100080.81
2023-05-21T23:03:17.068Z,100078.06
2023-05-21T23:05:43.989Z,100081.59
2023-05-21T23:08:10.946Z,100079.77
2023-05-21T23:10:39.326Z,100077.46
2023-05-21T23:13:07.046Z,100081.08
2023-05-21T23:15:38.309Z,100086.02
2023-05-21T23:18:07.365Z,100084.47
2023-05-21T23:20:34.844Z,100089.95
2023-05-21T23:23:07.600Z,100089.94
2023-05-21T23:25:35.372Z,100088.69
2023-05-21T23:28:03.817Z,100090.20
2023-05-21T23:30:36.072Z,100089.78
2023-05-21T23:33:03.249Z,100089.64
2023-05-21T23:35:30.763Z,100086.48
2023-05-21T23:37:57.650Z,100090.31
2023-05-21T23:40:24.518Z,100084.74
2023-05-21T23:42:51.501Z,100081.39
2023-05-21T23:45:18.692Z,100083.14
2023-05-21T23:47:46.322Z,100079.35
2023-05-21T23:50:13.142Z,100073.09
2023-05-21T23:52:41.022Z,100067.52
2023-05-21T23:55:08.299Z,100068.89
2023-05-21T23:57:36.157Z,100063.00
